createdAt,value
2017-04-07T00:00:02.502Z,85.81
2017-04-07T00:15:02.721Z,86.49
2017-04-07T00:30:02.472Z,87.08
2017-04-07T00:45:03.000Z,87.88
2017-04-07T01:00:02.462Z,88.27
2017-04-07T01:15:02.055Z,88.47
2017-04-07T01:30:02.380Z,88.6
2017-04-07T01:45:02.804Z,88.57
2017-04-07T02:00:07.534Z,88.39
2017-04-07T02:15:03.021Z,88.62
2017-04-07T02:30:02.884Z,88.91
2017-04-07T02:45:02.392Z,89.54
2017-04-07T03:00:02.853Z,89.98
2017-04-07T03:15:02.373Z,90.21
2017-04-07T03:30:02.940Z,90.34
2017-04-07T03:45:02.637Z,90.36
2017-04-07T04:00:02.057Z,90.48
2017-04-07T04:15:02.222Z,90.36
2017-04-07T04:30:07.204Z,90.31
2017-04-07T04:45:02.663Z,90.5
2017-04-07T05:00:02.171Z,90.7
2017-04-07T05:15:02.534Z,90.73
2017-04-07T05:30:02.782Z,90.96
2017-04-07T05:45:02.480Z,91.12
2017-04-07T06:00:02.103Z,92.33
2017-04-07T06:15:02.206Z,92.48
2017-04-07T06:30:02.938Z,91.71
2017-04-07T06:45:02.646Z,90.44
2017-04-07T07:00:02.096Z,88.6
2017-04-07T07:15:02.602Z,89.07
2017-04-07T07:30:02.335Z,89.84
2017-04-07T07:45:08.248Z,89.14
2017-04-07T08:00:25.142Z,86.73
2017-04-07T08:15:07.887Z,85.72
2017-04-07T08:30:02.719Z,83.41
2017-04-07T08:45:20.919Z,83.66
2017-04-07T09:15:02.267Z,81.99
2017-04-07T09:30:02.325Z,78.73
2017-04-07T09:45:02.778Z,76.74
2017-04-07T10:00:02.219Z,76.6
2017-04-07T10:15:03.139Z,76.79
2017-04-07T10:30:02.795Z,75.55
2017-04-07T10:45:02.330Z,74.62
2017-04-07T11:00:02.775Z,75.1
2017-04-07T11:15:02.781Z,74.72
2017-04-07T11:30:02.525Z,73.49
2017-04-07T11:45:03.033Z,74.16
2017-04-07T12:00:02.745Z,74.35
2017-04-07T12:15:02.218Z,74.72
2017-04-07T12:30:03.205Z,74.91
2017-04-07T12:45:02.652Z,74.43
2017-04-07T13:00:02.229Z,79.04
2017-04-07T13:15:02.459Z,76.4
2017-04-07T13:30:02.430Z,75.55
2017-04-07T13:45:02.872Z,75.66
2017-04-07T14:00:02.409Z,76.69
2017-04-07T14:30:52.791Z,75.04
2017-04-07T14:45:02.686Z,74.77
2017-04-07T15:00:02.346Z,74.84
2017-04-07T15:15:02.805Z,75.11
2017-04-07T15:30:02.777Z,74.44
2017-04-07T15:45:02.296Z,74.48
2017-04-07T16:00:02.811Z,74.33
2017-04-07T16:15:02.885Z,74.37
2017-04-07T16:30:02.578Z,74.52
2017-04-07T16:45:03.239Z,73.81
2017-04-07T17:00:02.673Z,74.32
2017-04-07T17:15:02.451Z,75.14
2017-04-07T17:30:02.928Z,76.1
2017-04-07T17:45:02.383Z,77.32
2017-04-07T18:00:02.892Z,77.31
2017-04-07T18:15:02.631Z,77.48
2017-04-07T18:30:02.299Z,78.26
2017-04-07T18:45:02.741Z,79.31
2017-04-07T19:00:02.461Z,80.44
2017-04-07T19:15:02.787Z,82.29
2017-04-07T19:30:02.672Z,83.47
2017-04-07T19:45:02.112Z,84.08
2017-04-07T20:00:02.845Z,85.18
2017-04-07T20:15:02.280Z,87.38
2017-04-07T20:30:02.362Z,87.46
2017-04-07T20:45:02.833Z,88.52
2017-04-07T21:00:02.287Z,89.15
2017-04-07T21:15:02.488Z,89.34
2017-04-07T21:30:02.112Z,89.23
2017-04-07T21:45:02.640Z,89.89
2017-04-07T22:00:02.126Z,90.65
2017-04-07T22:15:02.907Z,91.63
2017-04-07T22:30:03.095Z,91.55
2017-04-07T22:45:02.241Z,91.81
2017-04-07T23:00:02.343Z,91.6
2017-04-07T23:15:02.548Z,91.89
2017-04-07T23:30:02.590Z,92.72
2017-04-07T23:45:02.488Z,93.32
